createdAt,value
2022-08-31T00:00:10.254Z,84.92
2022-08-31T00:02:56.129Z,84.62
2022-08-31T00:05:23.077Z,84.95
2022-08-31T00:07:49.791Z,84.88
2022-08-31T00:10:18.745Z,84.84
2022-08-31T00:12:48.897Z,85.71
2022-08-31T00:15:18.694Z,85.89
2022-08-31T00:17:47.649Z,85.90
2022-08-31T00:20:32.713Z,86.85
2022-08-31T00:23:06.136Z,86.18
2022-08-31T00:25:34.329Z,86.05
2022-08-31T00:28:01.974Z,85.65
2022-08-31T00:30:28.939Z,86.36
2022-08-31T00:32:58.245Z,86.33
2022-08-31T00:35:26.585Z,86.34
2022-08-31T00:37:53.320Z,86.40
2022-08-31T00:40:21.166Z,86.48
2022-08-31T00:42:47.876Z,86.31
2022-08-31T00:45:15.028Z,86.57
2022-08-31T00:47:41.890Z,86.63
2022-08-31T00:50:12.853Z,86.64
2022-08-31T00:52:43.071Z,86.32
2022-08-31T00:55:43.935Z,86.47
2022-08-31T00:58:12.347Z,87.10
2022-08-31T01:00:40.538Z,86.52
2022-08-31T01:03:08.549Z,85.92
2022-08-31T01:05:36.686Z,86.27
2022-08-31T01:08:05.313Z,85.84
2022-08-31T01:10:38.461Z,86.79
2022-08-31T01:13:06.942Z,87.17
2022-08-31T01:15:37.053Z,86.44
2022-08-31T01:18:05.961Z,86.91
2022-08-31T01:20:49.033Z,86.25
2022-08-31T01:23:33.320Z,86.25
2022-08-31T01:26:02.506Z,86.36
2022-08-31T01:28:29.229Z,86.01
2022-08-31T01:31:05.958Z,85.92
2022-08-31T01:33:34.590Z,86.73
2022-08-31T01:36:01.787Z,86.60
2022-08-31T01:38:29.606Z,87.07
2022-08-31T01:40:59.517Z,86.79
2022-08-31T01:43:26.386Z,87.36
2022-08-31T01:45:53.156Z,87.41
2022-08-31T01:48:20.661Z,88.69
2022-08-31T01:50:48.079Z,87.67
2022-08-31T01:53:15.174Z,87.24
2022-08-31T01:55:42.375Z,87.22
2022-08-31T01:58:09.319Z,87.41
2022-08-31T02:00:36.805Z,86.96
2022-08-31T02:03:05.139Z,87.14
2022-08-31T02:05:31.793Z,87.37
2022-08-31T02:07:58.512Z,87.48
2022-08-31T02:10:25.442Z,87.31
2022-08-31T02:12:52.072Z,87.32
2022-08-31T02:15:18.801Z,87.63
2022-08-31T02:17:45.603Z,87.45
2022-08-31T02:20:14.466Z,87.25
2022-08-31T02:22:41.246Z,87.17
2022-08-31T02:25:09.383Z,87.41
2022-08-31T02:27:37.096Z,87.03
2022-08-31T02:30:10.767Z,87.07
2022-08-31T02:32:37.438Z,87.05
2022-08-31T02:35:05.148Z,86.69
2022-08-31T02:37:32.043Z,87.06
2022-08-31T02:39:59.280Z,86.55
2022-08-31T02:42:29.004Z,86.78
2022-08-31T02:45:00.386Z,87.42
2022-08-31T02:47:27.512Z,86.83
2022-08-31T02:49:54.166Z,86.33
2022-08-31T02:52:21.037Z,87.01
2022-08-31T02:54:47.747Z,86.18
2022-08-31T02:57:14.577Z,86.71
2022-08-31T02:59:41.309Z,86.55
2022-08-31T03:02:08.137Z,85.90
2022-08-31T03:04:35.058Z,85.48
2022-08-31T03:07:02.214Z,85.98
2022-08-31T03:09:29.093Z,85.03
2022-08-31T03:11:55.621Z,84.96
2022-08-31T03:14:22.330Z,85.75
2022-08-31T03:16:51.893Z,84.90
2022-08-31T03:19:19.125Z,85.01
2022-08-31T03:21:47.658Z,85.04
2022-08-31T03:24:22.053Z,84.72
2022-08-31T03:26:54.660Z,83.70
2022-08-31T03:29:21.314Z,84.20
2022-08-31T03:31:48.138Z,84.23
2022-08-31T03:34:16.112Z,84.10
2022-08-31T03:36:42.820Z,83.60
2022-08-31T03:39:09.723Z,83.62
2022-08-31T03:41:36.410Z,84.39
2022-08-31T03:44:03.775Z,83.43
2022-08-31T03:46:33.541Z,83.74
2022-08-31T03:49:01.553Z,82.99
2022-08-31T03:51:28.310Z,83.76
2022-08-31T03:53:55.280Z,83.51
2022-08-31T03:56:22.254Z,82.97
2022-08-31T03:58:48.998Z,83.60
2022-08-31T04:01:15.690Z,83.11
2022-08-31T04:03:42.589Z,83.11
2022-08-31T04:06:11.392Z,83.17
2022-08-31T04:08:38.485Z,83.14
2022-08-31T04:11:12.492Z,83.45
2022-08-31T04:13:40.408Z,82.72
2022-08-31T04:16:09.607Z,82.49
2022-08-31T04:18:37.242Z,82.51
2022-08-31T04:21:04.221Z,82.87
2022-08-31T04:23:31.169Z,82.44
2022-08-31T04:25:58.137Z,82.74
2022-08-31T04:28:25.421Z,82.91
2022-08-31T04:30:52.194Z,82.58
2022-08-31T04:33:19.495Z,83.09
2022-08-31T04:35:46.442Z,82.36
2022-08-31T04:38:13.498Z,82.58
2022-08-31T04:40:42.281Z,82.51
2022-08-31T04:43:08.981Z,82.45
2022-08-31T04:45:40.774Z,83.16
2022-08-31T04:48:08.605Z,82.78
2022-08-31T04:50:37.359Z,82.47
2022-08-31T04:53:07.550Z,82.64
2022-08-31T04:55:34.238Z,83.19
2022-08-31T04:58:00.992Z,83.21
2022-08-31T05:00:28.239Z,83.14
2022-08-31T05:02:55.039Z,82.32
2022-08-31T05:05:21.966Z,81.93
2022-08-31T05:07:48.611Z,82.56
2022-08-31T05:10:15.786Z,82.28
2022-08-31T05:12:44.311Z,82.23
2022-08-31T05:15:11.497Z,81.87
2022-08-31T05:17:38.265Z,82.32
2022-08-31T05:20:06.205Z,81.65
2022-08-31T05:22:33.353Z,82.59
2022-08-31T05:25:00.030Z,81.81
2022-08-31T05:27:26.685Z,81.73
2022-08-31T05:29:53.491Z,81.48
2022-08-31T05:32:20.196Z,81.55
2022-08-31T05:34:47.118Z,82.07
2022-08-31T05:37:14.418Z,81.53
2022-08-31T05:39:41.112Z,81.96
2022-08-31T05:42:08.003Z,82.52
2022-08-31T05:44:35.632Z,82.07
2022-08-31T05:47:04.051Z,81.85
2022-08-31T05:49:32.280Z,82.29
2022-08-31T05:52:00.059Z,82.20
2022-08-31T05:54:27.165Z,82.05
2022-08-31T05:56:53.754Z,81.69
2022-08-31T05:59:20.611Z,81.86
2022-08-31T06:01:47.322Z,81.72
2022-08-31T06:04:13.985Z,81.56
2022-08-31T06:06:41.241Z,82.10
2022-08-31T06:09:08.674Z,82.87
2022-08-31T06:11:36.015Z,80.81
2022-08-31T06:14:03.974Z,80.85
2022-08-31T06:16:30.807Z,80.95
2022-08-31T06:18:57.719Z,81.27
2022-08-31T06:21:31.005Z,81.13
2022-08-31T06:23:58.166Z,80.53
2022-08-31T06:26:26.664Z,80.16
2022-08-31T06:28:55.121Z,80.08
2022-08-31T06:31:36.160Z,80.19
2022-08-31T06:34:06.521Z,80.46
2022-08-31T06:36:33.857Z,80.48
2022-08-31T06:39:01.685Z,81.44
2022-08-31T06:41:36.426Z,81.16
2022-08-31T06:44:06.405Z,79.98
2022-08-31T06:46:34.428Z,80.64
2022-08-31T06:49:01.328Z,81.26
2022-08-31T06:51:28.502Z,79.31
2022-08-31T06:53:55.741Z,79.92
2022-08-31T06:56:25.336Z,79.29
2022-08-31T06:58:53.579Z,80.25
2022-08-31T07:01:35.191Z,79.21
2022-08-31T07:04:05.639Z,79.88
2022-08-31T07:06:36.540Z,79.44
2022-08-31T07:09:06.440Z,78.86
2022-08-31T07:11:44.601Z,79.07
2022-08-31T07:14:14.572Z,79.00
2022-08-31T07:16:42.680Z,79.10
2022-08-31T07:19:10.345Z,79.71
2022-08-31T07:21:46.110Z,79.23
2022-08-31T07:24:14.879Z,78.94
2022-08-31T07:26:54.434Z,79.37
2022-08-31T07:29:23.222Z,78.17
2022-08-31T07:31:50.523Z,78.74
2022-08-31T07:34:26.762Z,79.85
2022-08-31T07:37:14.075Z,79.11
2022-08-31T07:40:04.694Z,79.60
2022-08-31T07:42:37.984Z,79.80
2022-08-31T07:45:07.372Z,79.66
2022-08-31T07:47:46.051Z,81.94
2022-08-31T07:50:14.645Z,80.72
2022-08-31T07:52:53.042Z,80.29
2022-08-31T07:55:21.781Z,80.97
2022-08-31T07:57:50.773Z,81.02
2022-08-31T08:00:26.508Z,82.21
2022-08-31T08:02:54.135Z,81.64
2022-08-31T08:05:27.416Z,81.39
2022-08-31T08:07:58.628Z,81.78
2022-08-31T08:10:26.235Z,82.29
2022-08-31T08:13:05.024Z,84.30
2022-08-31T08:15:35.681Z,88.41
2022-08-31T08:18:04.369Z,89.06
2022-08-31T08:20:34.444Z,90.24
2022-08-31T08:23:28.552Z,91.38
2022-08-31T08:25:56.314Z,91.25
2022-08-31T08:28:42.352Z,94.55
2022-08-31T08:31:16.046Z,93.28
2022-08-31T08:33:43.280Z,95.10
2022-08-31T08:36:10.416Z,95.79
2022-08-31T08:38:39.768Z,98.19
2022-08-31T08:41:13.138Z,96.83
2022-08-31T08:43:43.906Z,95.92
2022-08-31T08:46:33.616Z,95.75
2022-08-31T08:49:07.975Z,95.85
2022-08-31T08:51:39.495Z,95.63
2022-08-31T08:54:20.611Z,95.75
2022-08-31T08:56:48.967Z,94.37
2022-08-31T08:59:19.624Z,93.73
2022-08-31T09:01:50.916Z,94.77
2022-08-31T09:04:44.415Z,95.19
2022-08-31T09:07:39.469Z,95.62
2022-08-31T09:10:41.915Z,95.42
2022-08-31T09:13:34.467Z,95.47
2022-08-31T09:16:39.116Z,96.89
2022-08-31T09:19:14.567Z,95.91
2022-08-31T09:21:58.346Z,97.58
2022-08-31T09:24:28.111Z,96.18
2022-08-31T09:27:17.325Z,96.45
2022-08-31T09:30:03.017Z,97.11
2022-08-31T09:32:36.037Z,97.16
2022-08-31T09:35:09.227Z,97.58
2022-08-31T09:37:46.370Z,99.56
2022-08-31T09:40:24.371Z,99.37
2022-08-31T09:43:28.784Z,98.21
2022-08-31T09:46:07.357Z,97.96
2022-08-31T09:48:52.336Z,98.37
2022-08-31T09:51:31.103Z,98.07
2022-08-31T09:54:36.766Z,98.53
2022-08-31T09:57:09.889Z,99.35
2022-08-31T09:59:48.321Z,99.78
2022-08-31T10:02:38.011Z,100.00
2022-08-31T10:05:25.816Z,100.00
2022-08-31T10:08:07.182Z,100.00
2022-08-31T10:10:38.388Z,99.57
2022-08-31T10:13:36.310Z,100.00
2022-08-31T10:16:23.087Z,98.81
2022-08-31T10:19:16.152Z,99.11
2022-08-31T10:21:59.979Z,98.96
2022-08-31T10:24:44.797Z,100.00
2022-08-31T10:27:45.231Z,100.00
2022-08-31T10:30:24.185Z,98.34
2022-08-31T10:33:01.083Z,97.92
2022-08-31T10:35:41.194Z,99.56
2022-08-31T10:38:26.310Z,98.64
2022-08-31T10:41:33.051Z,99.95
2022-08-31T10:44:06.391Z,99.47
2022-08-31T10:46:35.593Z,100.00
2022-08-31T10:49:04.473Z,98.35
2022-08-31T10:51:43.651Z,98.70
2022-08-31T10:54:47.935Z,99.73
2022-08-31T10:58:02.769Z,100.00
2022-08-31T11:00:45.842Z,100.00
2022-08-31T11:04:00.813Z,100.00
2022-08-31T11:06:45.094Z,100.00
2022-08-31T11:09:44.887Z,100.00
2022-08-31T11:12:18.464Z,100.00
2022-08-31T11:15:24.287Z,100.00
2022-08-31T11:18:50.749Z,99.13
2022-08-31T11:21:39.709Z,100.00
2022-08-31T11:24:36.437Z,100.00
2022-08-31T11:27:40.841Z,100.00
2022-08-31T11:30:24.115Z,100.00
2022-08-31T11:33:00.311Z,100.00
2022-08-31T11:36:07.705Z,100.00
2022-08-31T11:41:54.465Z,100.00
2022-08-31T11:45:10.035Z,100.00
2022-08-31T11:47:43.397Z,100.00
2022-08-31T11:50:38.922Z,100.00
2022-08-31T11:53:34.946Z,100.00
2022-08-31T11:56:05.213Z,100.00
2022-08-31T11:58:34.991Z,100.00
2022-08-31T12:01:09.352Z,100.00
2022-08-31T12:04:06.601Z,100.00
2022-08-31T12:07:04.172Z,100.00
2022-08-31T12:10:11.267Z,100.00
2022-08-31T12:13:19.574Z,100.00
2022-08-31T12:15:58.727Z,100.00
2022-08-31T12:19:33.101Z,100.00
2022-08-31T12:22:30.348Z,100.00
2022-08-31T12:25:16.862Z,100.00
2022-08-31T12:28:11.089Z,100.00
2022-08-31T12:30:48.523Z,100.00
2022-08-31T12:33:19.709Z,100.00
2022-08-31T12:35:49.586Z,100.00
2022-08-31T12:38:21.625Z,100.00
2022-08-31T12:40:51.651Z,100.00
2022-08-31T12:43:25.877Z,100.00
2022-08-31T12:46:05.135Z,100.00
2022-08-31T12:49:16.666Z,100.00
2022-08-31T12:52:20.325Z,100.00
2022-08-31T12:55:23.750Z,100.00
2022-08-31T12:58:23.810Z,100.00
2022-08-31T13:00:50.703Z,100.00
2022-08-31T13:03:23.061Z,100.00
2022-08-31T13:06:08.890Z,100.00
2022-08-31T13:08:44.781Z,100.00
2022-08-31T13:11:40.006Z,100.00
2022-08-31T13:14:24.731Z,100.00
2022-08-31T13:16:59.495Z,100.00
2022-08-31T13:19:29.568Z,100.00
2022-08-31T13:21:59.246Z,100.00
2022-08-31T13:24:32.898Z,100.00
2022-08-31T13:27:24.602Z,100.00
2022-08-31T13:29:53.507Z,100.00
2022-08-31T13:32:32.896Z,100.00
2022-08-31T13:35:04.239Z,100.00
2022-08-31T13:37:41.355Z,100.00
2022-08-31T13:40:12.789Z,100.00
2022-08-31T13:42:45.656Z,100.00
2022-08-31T13:45:27.473Z,100.00
2022-08-31T13:48:16.093Z,100.00
2022-08-31T13:50:53.642Z,100.00
2022-08-31T13:53:39.366Z,100.00
2022-08-31T13:56:55.570Z,100.00
2022-08-31T13:59:29.810Z,100.00
2022-08-31T14:02:20.241Z,100.00
2022-08-31T14:05:00.301Z,100.00
2022-08-31T14:07:58.064Z,100.00
2022-08-31T14:10:38.914Z,100.00
2022-08-31T14:13:18.851Z,100.00
2022-08-31T14:16:03.003Z,100.00
2022-08-31T14:18:40.357Z,100.00
2022-08-31T14:21:22.665Z,100.00
2022-08-31T14:23:54.480Z,100.00
2022-08-31T14:26:26.290Z,100.00
2022-08-31T14:28:55.539Z,100.00
2022-08-31T14:31:37.228Z,100.00
2022-08-31T14:34:19.096Z,100.00
2022-08-31T14:36:52.878Z,100.00
2022-08-31T14:39:34.069Z,100.00
2022-08-31T14:42:18.236Z,100.00
2022-08-31T14:45:07.384Z,100.00
2022-08-31T14:47:38.800Z,100.00
2022-08-31T14:50:06.009Z,100.00
2022-08-31T14:52:39.244Z,100.00
2022-08-31T14:55:09.042Z,100.00
2022-08-31T14:57:36.650Z,100.00
2022-08-31T15:00:05.920Z,100.00
2022-08-31T15:02:33.752Z,100.00
2022-08-31T15:05:04.658Z,100.00
2022-08-31T15:07:33.377Z,100.00
2022-08-31T15:10:00.409Z,100.00
2022-08-31T15:12:27.077Z,100.00
2022-08-31T15:14:59.955Z,100.00
2022-08-31T15:17:33.864Z,100.00
2022-08-31T15:20:03.542Z,100.00
2022-08-31T15:22:31.354Z,100.00
2022-08-31T15:24:58.304Z,100.00
2022-08-31T15:27:29.132Z,100.00
2022-08-31T15:30:02.529Z,100.00
2022-08-31T15:32:29.543Z,100.00
2022-08-31T15:34:58.942Z,100.00
2022-08-31T15:37:32.009Z,100.00
2022-08-31T15:40:01.210Z,100.00
2022-08-31T15:42:29.536Z,100.00
2022-08-31T15:45:00.427Z,100.00
2022-08-31T15:47:54.724Z,100.00
2022-08-31T15:50:25.904Z,100.00
2022-08-31T15:53:00.971Z,100.00
2022-08-31T15:55:27.850Z,100.00
2022-08-31T15:57:58.302Z,100.00
2022-08-31T16:00:27.839Z,100.00
2022-08-31T16:02:57.474Z,100.00
2022-08-31T16:05:30.513Z,100.00
2022-08-31T16:07:57.344Z,100.00
2022-08-31T16:10:24.684Z,100.00
2022-08-31T16:12:52.066Z,100.00
2022-08-31T16:15:21.290Z,100.00
2022-08-31T16:17:50.962Z,100.00
2022-08-31T16:20:17.715Z,100.00
2022-08-31T16:22:44.643Z,100.00
2022-08-31T16:25:14.087Z,100.00
2022-08-31T16:27:41.584Z,100.00
2022-08-31T16:30:10.057Z,100.00
2022-08-31T16:32:36.906Z,100.00
2022-08-31T16:35:05.593Z,100.00
2022-08-31T16:37:32.886Z,100.00
2022-08-31T16:39:59.659Z,100.00
2022-08-31T16:42:26.678Z,100.00
2022-08-31T16:44:59.769Z,100.00
2022-08-31T16:47:29.311Z,100.00
2022-08-31T16:49:58.973Z,100.00
2022-08-31T16:52:30.977Z,100.00
2022-08-31T16:54:57.662Z,100.00
2022-08-31T16:57:27.600Z,100.00
2022-08-31T16:59:56.035Z,100.00
2022-08-31T17:02:24.468Z,100.00
2022-08-31T17:04:53.776Z,100.00
2022-08-31T17:07:23.232Z,100.00
2022-08-31T17:09:50.069Z,100.00
2022-08-31T17:12:19.170Z,100.00
2022-08-31T17:14:49.967Z,100.00
2022-08-31T17:17:19.682Z,100.00
2022-08-31T17:19:47.074Z,100.00
2022-08-31T17:22:23.375Z,100.00
2022-08-31T17:24:56.316Z,100.00
2022-08-31T17:27:24.720Z,100.00
2022-08-31T17:29:53.890Z,100.00
2022-08-31T17:32:24.328Z,100.00
2022-08-31T17:34:54.372Z,100.00
2022-08-31T17:37:25.933Z,100.00
2022-08-31T17:39:53.028Z,100.00
2022-08-31T17:42:26.865Z,100.00
2022-08-31T17:44:54.591Z,100.00
2022-08-31T17:47:22.852Z,100.00
2022-08-31T17:49:52.673Z,100.00
2022-08-31T17:52:21.578Z,100.00
2022-08-31T17:54:50.972Z,100.00
2022-08-31T17:57:19.904Z,100.00
2022-08-31T17:59:50.580Z,100.00
2022-08-31T18:02:25.384Z,100.00
2022-08-31T18:04:52.791Z,100.00
2022-08-31T18:07:20.422Z,100.00
2022-08-31T18:09:47.161Z,100.00
2022-08-31T18:12:21.758Z,100.00
2022-08-31T18:14:48.571Z,100.00
2022-08-31T18:17:17.968Z,100.00
2022-08-31T18:19:45.136Z,100.00
2022-08-31T18:22:14.414Z,100.00
2022-08-31T18:24:42.768Z,100.00
2022-08-31T18:27:11.516Z,100.00
2022-08-31T18:29:38.835Z,100.00
2022-08-31T18:32:07.791Z,100.00
2022-08-31T18:34:39.050Z,100.00
2022-08-31T18:37:07.275Z,100.00
2022-08-31T18:40:00.085Z,100.00
2022-08-31T18:42:46.120Z,100.00
2022-08-31T18:45:15.555Z,100.00
2022-08-31T18:47:43.346Z,100.00
2022-08-31T18:50:10.640Z,100.00
2022-08-31T18:52:40.393Z,100.00
2022-08-31T18:55:15.482Z,100.00
2022-08-31T18:57:48.822Z,100.00
2022-08-31T19:00:17.849Z,100.00
2022-08-31T19:02:45.303Z,100.00
2022-08-31T19:05:14.218Z,100.00
2022-08-31T19:07:41.531Z,100.00
2022-08-31T19:10:13.646Z,100.00
2022-08-31T19:12:42.846Z,100.00
2022-08-31T19:15:11.288Z,100.00
2022-08-31T19:17:40.046Z,100.00
2022-08-31T19:20:10.152Z,100.00
2022-08-31T19:22:37.693Z,100.00
2022-08-31T19:25:07.075Z,100.00
2022-08-31T19:27:35.342Z,100.00
2022-08-31T19:30:05.934Z,100.00
2022-08-31T19:32:33.653Z,100.00
2022-08-31T19:35:00.457Z,100.00
2022-08-31T19:37:27.689Z,100.00
2022-08-31T19:39:54.437Z,100.00
2022-08-31T19:42:39.746Z,100.00
2022-08-31T19:45:24.257Z,100.00
2022-08-31T19:47:51.501Z,100.00
2022-08-31T19:50:18.267Z,100.00
2022-08-31T19:52:45.554Z,100.00
2022-08-31T19:55:12.411Z,100.00
2022-08-31T19:57:39.866Z,100.00
2022-08-31T20:00:09.947Z,100.00
2022-08-31T20:02:37.268Z,100.00
2022-08-31T20:05:06.299Z,100.00
2022-08-31T20:07:35.051Z,100.00
2022-08-31T20:10:04.131Z,100.00
2022-08-31T20:12:30.812Z,100.00
2022-08-31T20:14:57.419Z,100.00
2022-08-31T20:17:24.389Z,100.00
2022-08-31T20:19:52.188Z,100.00
2022-08-31T20:22:23.785Z,100.00
2022-08-31T20:24:55.635Z,100.00
2022-08-31T20:27:22.416Z,100.00
2022-08-31T20:29:49.839Z,100.00
2022-08-31T20:32:16.727Z,100.00
2022-08-31T20:34:44.662Z,100.00
2022-08-31T20:37:12.731Z,100.00
2022-08-31T20:39:39.653Z,100.00
2022-08-31T20:42:07.729Z,100.00
2022-08-31T20:44:37.151Z,100.00
2022-08-31T20:47:26.488Z,100.00
2022-08-31T20:50:01.493Z,100.00
2022-08-31T20:52:32.103Z,100.00
2022-08-31T20:55:01.989Z,100.00
2022-08-31T20:57:33.989Z,100.00
2022-08-31T21:00:05.095Z,100.00
2022-08-31T21:02:32.151Z,100.00
2022-08-31T21:05:15.168Z,100.00
2022-08-31T21:07:47.117Z,100.00
2022-08-31T21:10:14.746Z,100.00
2022-08-31T21:12:41.437Z,100.00
2022-08-31T21:15:10.207Z,100.00
2022-08-31T21:17:36.955Z,100.00
2022-08-31T21:20:05.266Z,100.00
2022-08-31T21:22:34.944Z,100.00
2022-08-31T21:25:02.207Z,100.00
2022-08-31T21:27:30.003Z,100.00
2022-08-31T21:29:57.166Z,100.00
2022-08-31T21:32:23.792Z,100.00
2022-08-31T21:34:50.599Z,100.00
2022-08-31T21:37:17.182Z,100.00
2022-08-31T21:39:44.029Z,100.00
2022-08-31T21:42:10.656Z,100.00
2022-08-31T21:44:38.149Z,100.00
2022-08-31T21:47:07.947Z,100.00
2022-08-31T21:49:34.567Z,100.00
2022-08-31T21:52:02.201Z,100.00
2022-08-31T21:54:29.188Z,100.00
2022-08-31T21:57:01.763Z,100.00
2022-08-31T21:59:35.190Z,100.00
2022-08-31T22:02:09.254Z,100.00
2022-08-31T22:04:40.323Z,100.00
2022-08-31T22:07:08.171Z,100.00
2022-08-31T22:09:36.085Z,100.00
2022-08-31T22:12:06.509Z,100.00
2022-08-31T22:14:38.025Z,100.00
2022-08-31T22:17:06.876Z,100.00
2022-08-31T22:19:38.904Z,100.00
2022-08-31T22:22:11.980Z,100.00
2022-08-31T22:24:40.688Z,100.00
2022-08-31T22:27:10.269Z,100.00
2022-08-31T22:29:38.658Z,100.00
2022-08-31T22:32:12.459Z,100.00
2022-08-31T22:34:42.168Z,100.00
2022-08-31T22:37:11.201Z,100.00
2022-08-31T22:39:40.364Z,100.00
2022-08-31T22:42:08.589Z,100.00
2022-08-31T22:44:37.560Z,100.00
2022-08-31T22:47:04.760Z,100.00
2022-08-31T22:49:31.458Z,100.00
2022-08-31T22:51:58.305Z,100.00
2022-08-31T22:54:26.127Z,100.00
2022-08-31T22:56:53.154Z,100.00
2022-08-31T22:59:27.012Z,100.00
2022-08-31T23:01:56.805Z,100.00
2022-08-31T23:04:26.369Z,100.00
2022-08-31T23:06:53.247Z,100.00
2022-08-31T23:09:22.211Z,100.00
2022-08-31T23:11:51.685Z,100.00
2022-08-31T23:14:21.065Z,100.00
2022-08-31T23:16:57.034Z,100.00
2022-08-31T23:19:30.410Z,100.00
2022-08-31T23:21:57.864Z,100.00
2022-08-31T23:24:37.952Z,100.00
2022-08-31T23:27:07.372Z,100.00
2022-08-31T23:29:40.019Z,100.00
2022-08-31T23:32:11.627Z,100.00
2022-08-31T23:34:38.744Z,100.00
2022-08-31T23:37:08.617Z,100.00
2022-08-31T23:39:41.080Z,100.00
2022-08-31T23:42:07.690Z,100.00
2022-08-31T23:44:36.305Z,100.00
2022-08-31T23:47:02.950Z,100.00
2022-08-31T23:49:29.788Z,100.00
2022-08-31T23:51:56.698Z,100.00
2022-08-31T23:54:23.274Z,100.00
2022-08-31T23:56:52.255Z,100.00
2022-08-31T23:59:19.865Z,100.00
